Whale Watcher II — WDB8211 — position and weather

sailwx.info

Track history (hours):
 
Tides and Currents Weather Stations Pressure Air Temp Water Temp Dewpoint Dewpoint Depression Visibility Wind Speed Wind Dir Waves Ship Positions

Whale Watcher II

Owner: Ronald L. Robbins LLC, Cape May, NJ. More information available from US FCC via Universal Licensing System and Coast Guard Vessel Documentation Center.

Last reported at 2014-Dec-20 19:08 UTC. Time now 2014-Dec-20 20:49 UTC.
Position N 29°55' W 090°04'.

Length 22 m.

Type: Towing. MMSI: 367011790.

Date/timePositionNaut miles runAvg speedWind from/ knotsBaromVisibWave heightAir tempDewpointWater temp
2014-Dec-20 19:08N 29°55' W 090°04'0 0.0
2014-Dec-20 18:24N 29°55' W 090°04'0 0.0
2014-Dec-20 16:11N 29°55' W 090°04'0 0.0
2014-Dec-20 14:19N 29°55' W 090°04'0 0.0
2014-Dec-20 13:34N 29°55' W 090°04'0 0.0
2014-Dec-20 12:33N 29°55' W 090°04'2 2.4
2014-Dec-20 11:33N 29°57' W 090°02'5 4.6
2014-Dec-20 10:30N 29°55' W 089°57'3 2.1
2014-Dec-20 09:15N 29°54' W 089°54'0 0.0
2014-Dec-20 08:15N 29°54' W 089°54'0 0.0
2014-Dec-20 07:27N 29°54' W 089°54'8 0.2
2014-Dec-18 04:17N 29°55' W 090°04'4 2.1
2014-Dec-18 02:20N 29°55' W 090°08'0 0.0
2014-Dec-17 11:24N 29°55' W 090°08'4 4.2
2014-Dec-17 10:24N 29°56' W 090°03'0 0.1
2014-Dec-17 05:32N 29°55' W 090°04'0 0.0
2014-Dec-17 04:33N 29°55' W 090°04'0 0.1
2014-Dec-17 03:31N 29°55' W 090°04'3 3.3
2014-Dec-17 02:29N 29°56' W 089°60'2 0.1
2014-Dec-15 20:17N 29°56' W 089°58'5 6.3
2014-Dec-15 19:32N 29°57' W 090°04'1 1.3
2014-Dec-15 18:32N 29°55' W 090°04'0 0.0
2014-Dec-15 17:27N 29°55' W 090°04'0 0.0
2014-Dec-15 16:33N 29°55' W 090°04'0 0.0
2014-Dec-15 06:03N 29°55' W 090°04'0 0.0
2014-Dec-15 04:06N 29°55' W 090°04'1 0.2
2014-Dec-14 21:21N 29°55' W 090°05'0 0.0
2014-Dec-14 20:18N 29°55' W 090°05'0 0.0
2014-Dec-14 19:23N 29°55' W 090°05'0 0.0
2014-Dec-14 18:30N 29°55' W 090°05'0 0.0
2014-Dec-14 17:32N 29°55' W 090°05'0 0.0
2014-Dec-14 16:33N 29°55' W 090°05'0 0.0
2014-Dec-14 15:33N 29°55' W 090°05'0 0.0
2014-Dec-14 14:33N 29°55' W 090°05'0 0.0
2014-Dec-14 13:33N 29°55' W 090°05'0 0.0
2014-Dec-14 12:33N 29°55' W 090°05'0 0.0
2014-Dec-14 11:31N 29°55' W 090°05'0 0.0
2014-Dec-14 10:24N 29°55' W 090°05'0 0.0
2014-Dec-14 09:31N 29°55' W 090°05'2 1.7
2014-Dec-14 08:33N 29°56' W 090°03'0 0.2
2014-Dec-14 07:33N 29°56' W 090°03'0 0.4
2014-Dec-14 06:33N 29°56' W 090°04'0 0.2
2014-Dec-14 05:30N 29°55' W 090°04'0 0.2
2014-Dec-14 04:27N 29°56' W 090°04'1 1.3
2014-Dec-14 03:24N 29°55' W 090°05'4 0.1
2014-Dec-12 08:23N 29°57' W 090°09'15 0.6
2014-Dec-11 09:21N 29°45' W 090°01'  
Track history (hours):
 
Tides and Currents Weather Stations Pressure Air Temp Water Temp Dewpoint Dewpoint Depression Visibility Wind Speed Wind Dir Waves Ship Positions

Whale Watcher II

Owner: Ronald L. Robbins LLC, Cape May, NJ. More information available from US FCC via Universal Licensing System and Coast Guard Vessel Documentation Center.

Last reported at 2014-Dec-20 19:08 UTC. Time now 2014-Dec-20 20:49 UTC.
Position N 29°55' W 090°04'.

Length 22 m.

Type: Towing. MMSI: 367011790.

Date/timePositionNaut miles runAvg speedWind from/ knotsBaromVisibWave heightAir tempDewpointWater temp
2014-Dec-20 19:08N 29°55' W 090°04'0 0.0
2014-Dec-20 18:24N 29°55' W 090°04'0 0.0
2014-Dec-20 16:11N 29°55' W 090°04'0 0.0
2014-Dec-20 14:19N 29°55' W 090°04'0 0.0
2014-Dec-20 13:34N 29°55' W 090°04'0 0.0
2014-Dec-20 12:33N 29°55' W 090°04'2 2.4
2014-Dec-20 11:33N 29°57' W 090°02'5 4.6
2014-Dec-20 10:30N 29°55' W 089°57'3 2.1
2014-Dec-20 09:15N 29°54' W 089°54'0 0.0
2014-Dec-20 08:15N 29°54' W 089°54'0 0.0
2014-Dec-20 07:27N 29°54' W 089°54'8 0.2
2014-Dec-18 04:17N 29°55' W 090°04'4 2.1
2014-Dec-18 02:20N 29°55' W 090°08'0 0.0
2014-Dec-17 11:24N 29°55' W 090°08'4 4.2
2014-Dec-17 10:24N 29°56' W 090°03'0 0.1
2014-Dec-17 05:32N 29°55' W 090°04'0 0.0
2014-Dec-17 04:33N 29°55' W 090°04'0 0.1
2014-Dec-17 03:31N 29°55' W 090°04'3 3.3
2014-Dec-17 02:29N 29°56' W 089°60'2 0.1
2014-Dec-15 20:17N 29°56' W 089°58'5 6.3
2014-Dec-15 19:32N 29°57' W 090°04'1 1.3
2014-Dec-15 18:32N 29°55' W 090°04'0 0.0
2014-Dec-15 17:27N 29°55' W 090°04'0 0.0
2014-Dec-15 16:33N 29°55' W 090°04'0 0.0
2014-Dec-15 06:03N 29°55' W 090°04'0 0.0
2014-Dec-15 04:06N 29°55' W 090°04'1 0.2
2014-Dec-14 21:21N 29°55' W 090°05'0 0.0
2014-Dec-14 20:18N 29°55' W 090°05'0 0.0
2014-Dec-14 19:23N 29°55' W 090°05'0 0.0
2014-Dec-14 18:30N 29°55' W 090°05'0 0.0
2014-Dec-14 17:32N 29°55' W 090°05'0 0.0
2014-Dec-14 16:33N 29°55' W 090°05'0 0.0
2014-Dec-14 15:33N 29°55' W 090°05'0 0.0
2014-Dec-14 14:33N 29°55' W 090°05'0 0.0
2014-Dec-14 13:33N 29°55' W 090°05'0 0.0
2014-Dec-14 12:33N 29°55' W 090°05'0 0.0
2014-Dec-14 11:31N 29°55' W 090°05'0 0.0
2014-Dec-14 10:24N 29°55' W 090°05'0 0.0
2014-Dec-14 09:31N 29°55' W 090°05'2 1.7
2014-Dec-14 08:33N 29°56' W 090°03'0 0.2
2014-Dec-14 07:33N 29°56' W 090°03'0 0.4
2014-Dec-14 06:33N 29°56' W 090°04'0 0.2
2014-Dec-14 05:30N 29°55' W 090°04'0 0.2
2014-Dec-14 04:27N 29°56' W 090°04'1 1.3
2014-Dec-14 03:24N 29°55' W 090°05'4 0.1
2014-Dec-12 08:23N 29°57' W 090°09'15 0.6
2014-Dec-11 09:21N 29°45' W 090°01'  

Dump ship's entire track history